Terminal Aerodrome Forecast
Issued by NWS

Home | Current Version | Previous Version | Text Only | Print | Product List | Glossary On
Versions: 1 2 3 4 5 6 7 8 9 10 11 12 13 14 15 16 17 18 19 20 21
000
FTUS41 KOKX 211400 AAA
TAFSWF
TAF AMD
KSWF 211432Z 2115/2218 VRB03KT P6SM BKN050
     FM212300 VRB04KT 6SM -SHRA OVC035
     FM220500 05007KT 4SM -SHRA BR FEW009 BKN020
     FM220800 05009KT 4SM -SHRA BR BKN009
      AMD NOT SKED=

USA.gov is the U.S. government's official web portal to all federal, state and local government web resources and services.